createdAt,value
2023-03-06T00:02:19.862Z,9.95
2023-03-06T00:04:48.420Z,9.63
2023-03-06T00:07:16.362Z,10.93
2023-03-06T00:09:46.593Z,10.50
2023-03-06T00:12:14.845Z,9.77
2023-03-06T00:14:44.569Z,10.13
2023-03-06T00:17:12.766Z,9.65
2023-03-06T00:19:44.000Z,9.95
2023-03-06T00:22:14.704Z,9.63
2023-03-06T00:24:44.553Z,10.43
2023-03-06T00:27:13.560Z,9.93
2023-03-06T00:29:41.530Z,10.18
2023-03-06T00:32:24.859Z,9.80
2023-03-06T00:34:58.902Z,10.05
2023-03-06T00:37:42.753Z,9.55
2023-03-06T00:40:22.114Z,10.70
2023-03-06T00:42:52.074Z,9.80
2023-03-06T00:45:20.272Z,10.75
2023-03-06T00:47:49.248Z,10.20
2023-03-06T00:50:20.452Z,9.38
2023-03-06T00:52:50.564Z,9.90
2023-03-06T00:55:18.531Z,10.05
2023-03-06T00:57:47.701Z,9.98
2023-03-06T01:00:18.575Z,9.98
2023-03-06T01:02:55.656Z,11.43
2023-03-06T01:05:23.595Z,11.45
2023-03-06T01:08:05.482Z,12.30
2023-03-06T01:10:48.490Z,11.63
2023-03-06T01:13:20.506Z,12.02
2023-03-06T01:15:50.515Z,12.02
2023-03-06T01:18:22.480Z,12.18
2023-03-06T01:20:50.643Z,10.60
2023-03-06T01:23:27.942Z,11.70
2023-03-06T01:26:05.828Z,12.02
2023-03-06T01:28:36.475Z,11.00
2023-03-06T01:31:09.565Z,11.20
2023-03-06T01:33:39.764Z,11.05
2023-03-06T01:36:18.231Z,10.65
2023-03-06T01:38:54.562Z,11.10
2023-03-06T01:41:52.689Z,10.57
2023-03-06T01:44:28.319Z,11.25
2023-03-06T01:46:57.076Z,11.10
2023-03-06T01:49:38.879Z,11.30
2023-03-06T01:52:06.544Z,9.95
2023-03-06T01:54:47.815Z,11.23
2023-03-06T01:57:30.153Z,12.20
2023-03-06T02:00:08.365Z,10.05
2023-03-06T02:02:40.563Z,10.23
2023-03-06T02:05:08.692Z,9.30
2023-03-06T02:07:55.381Z,8.93
2023-03-06T02:10:40.572Z,10.15
2023-03-06T02:13:32.469Z,8.63
2023-03-06T02:16:01.638Z,9.18
2023-03-06T02:18:32.404Z,9.75
2023-03-06T02:21:21.547Z,9.65
2023-03-06T02:24:03.225Z,10.25
2023-03-06T02:26:32.683Z,9.57
2023-03-06T02:29:01.775Z,10.52
2023-03-06T02:31:47.337Z,10.32
2023-03-06T02:34:15.226Z,9.82
2023-03-06T02:36:46.702Z,9.80
2023-03-06T02:41:43.553Z,9.90
2023-03-06T02:44:24.026Z,10.65
2023-03-06T02:47:06.193Z,10.48
2023-03-06T02:49:46.455Z,9.48
2023-03-06T02:52:16.352Z,9.45
2023-03-06T02:54:54.504Z,8.68
2023-03-06T02:57:22.229Z,7.93
2023-03-06T02:59:56.199Z,9.05
2023-03-06T03:02:30.196Z,7.80
2023-03-06T03:04:57.988Z,8.10
2023-03-06T03:07:34.717Z,8.35
2023-03-06T03:10:07.835Z,7.53
2023-03-06T03:12:35.659Z,7.47
2023-03-06T03:15:12.049Z,9.32
2023-03-06T03:17:45.155Z,8.00
2023-03-06T03:20:23.454Z,8.57
2023-03-06T03:22:53.180Z,9.20
2023-03-06T03:25:23.351Z,9.02
2023-03-06T03:28:05.008Z,8.85
2023-03-06T03:30:48.922Z,7.82
2023-03-06T03:33:25.798Z,8.52
2023-03-06T03:36:07.703Z,9.05
2023-03-06T03:38:36.317Z,8.52
2023-03-06T03:41:06.746Z,8.30
2023-03-06T03:43:34.935Z,9.45
2023-03-06T03:46:05.256Z,8.18
2023-03-06T03:48:34.459Z,8.70
2023-03-06T03:51:17.984Z,8.65
2023-03-06T03:53:46.517Z,8.50
2023-03-06T03:56:15.041Z,9.18
2023-03-06T03:58:55.564Z,9.65
2023-03-06T04:01:23.373Z,8.95
2023-03-06T04:03:51.748Z,10.10
2023-03-06T04:06:29.399Z,10.15
2023-03-06T04:08:57.644Z,9.50
2023-03-06T04:11:25.735Z,9.63
2023-03-06T04:13:57.595Z,8.93
2023-03-06T04:16:27.702Z,10.02
2023-03-06T04:18:58.882Z,10.00
2023-03-06T04:21:27.089Z,10.27
2023-03-06T04:23:56.170Z,9.35
2023-03-06T04:26:38.087Z,9.90
2023-03-06T04:29:06.186Z,9.88
2023-03-06T04:31:34.550Z,8.60
2023-03-06T04:34:10.821Z,7.32
2023-03-06T04:36:47.881Z,7.75
2023-03-06T04:39:31.010Z,8.35
2023-03-06T04:42:05.972Z,8.18
2023-03-06T04:44:45.640Z,7.95
2023-03-06T04:47:14.154Z,9.40
2023-03-06T04:49:51.284Z,8.50
2023-03-06T04:52:23.066Z,8.80
2023-03-06T04:54:56.155Z,8.70
2023-03-06T04:57:25.478Z,9.30
2023-03-06T04:59:56.773Z,9.75
2023-03-06T05:02:29.701Z,10.05
2023-03-06T05:04:57.695Z,9.77
2023-03-06T05:07:27.841Z,9.93
2023-03-06T05:10:06.150Z,9.48
2023-03-06T05:12:39.484Z,9.07
2023-03-06T05:15:09.042Z,7.47
2023-03-06T05:17:37.119Z,7.55
2023-03-06T05:20:07.522Z,8.30
2023-03-06T05:22:40.888Z,7.18
2023-03-06T05:25:20.040Z,8.43
2023-03-06T05:27:53.921Z,9.27
2023-03-06T05:30:27.197Z,7.70
2023-03-06T05:33:03.344Z,8.43
2023-03-06T05:35:37.705Z,8.52
2023-03-06T05:38:05.746Z,9.43
2023-03-06T05:40:41.408Z,8.85
2023-03-06T05:43:11.858Z,8.52
2023-03-06T05:45:51.876Z,8.87
2023-03-06T05:48:22.743Z,8.18
2023-03-06T05:50:58.555Z,9.15
2023-03-06T05:53:36.714Z,8.45
2023-03-06T05:56:07.775Z,7.78
2023-03-06T05:58:39.619Z,9.20
2023-03-06T06:01:21.732Z,7.80
2023-03-06T06:03:50.802Z,7.85
2023-03-06T06:06:28.999Z,8.00
2023-03-06T06:08:56.848Z,8.00
2023-03-06T06:11:28.844Z,9.30
2023-03-06T06:13:56.615Z,8.35
2023-03-06T06:16:26.982Z,9.52
2023-03-06T06:19:00.627Z,8.57
2023-03-06T06:21:28.836Z,8.48
2023-03-06T06:24:40.221Z,11.10
2023-03-06T06:27:08.449Z,11.45
2023-03-06T06:29:39.430Z,10.60
2023-03-06T06:32:16.504Z,12.07
2023-03-06T06:34:53.166Z,12.13
2023-03-06T06:37:30.210Z,11.57
2023-03-06T06:40:29.223Z,13.52
2023-03-06T06:43:04.254Z,11.50
2023-03-06T06:45:41.373Z,10.75
2023-03-06T06:51:32.377Z,11.93
2023-03-06T07:00:38.490Z,10.68
2023-03-06T07:03:41.315Z,10.57
2023-03-06T07:09:10.768Z,11.13
2023-03-06T07:11:43.875Z,12.40
2023-03-06T07:14:13.439Z,12.25
2023-03-06T07:16:58.165Z,12.05
2023-03-06T07:19:37.973Z,11.50
2023-03-06T07:22:13.137Z,10.82
2023-03-06T07:24:43.147Z,10.63
2023-03-06T07:27:16.258Z,10.13
2023-03-06T07:29:59.662Z,9.93
2023-03-06T07:32:54.554Z,11.77
2023-03-06T07:35:32.756Z,11.18
2023-03-06T07:38:01.821Z,11.00
2023-03-06T07:40:29.704Z,10.13
2023-03-06T07:43:19.332Z,10.35
2023-03-06T07:46:07.758Z,11.75
2023-03-06T07:48:38.376Z,11.73
2023-03-06T07:51:22.240Z,12.02
2023-03-06T07:54:01.286Z,10.80
2023-03-06T07:56:38.182Z,11.38
2023-03-06T07:59:15.296Z,11.52
2023-03-06T08:02:10.219Z,10.50
2023-03-06T08:05:07.628Z,10.65
2023-03-06T08:07:41.458Z,10.98
2023-03-06T08:10:13.923Z,10.05
2023-03-06T08:12:44.682Z,11.43
2023-03-06T08:15:15.915Z,10.73
2023-03-06T08:17:48.787Z,10.85
2023-03-06T08:20:18.635Z,10.38
2023-03-06T08:22:50.768Z,12.05
2023-03-06T08:25:26.083Z,10.75
2023-03-06T08:28:31.582Z,11.65
2023-03-06T08:30:59.686Z,10.00
2023-03-06T08:33:34.373Z,10.95
2023-03-06T08:36:30.169Z,11.15
2023-03-06T08:39:15.362Z,10.27
2023-03-06T08:41:49.621Z,9.27
2023-03-06T08:47:36.618Z,9.80
2023-03-06T08:50:17.823Z,11.02
2023-03-06T08:52:50.899Z,8.32
2023-03-06T08:58:36.834Z,9.82
2023-03-06T09:01:24.818Z,9.43
2023-03-06T09:03:54.693Z,10.13
2023-03-06T09:06:22.578Z,9.35
2023-03-06T09:08:56.064Z,9.60
2023-03-06T09:11:30.057Z,8.43
2023-03-06T09:14:17.327Z,9.00
2023-03-06T09:16:49.359Z,9.30
2023-03-06T09:19:19.303Z,18.05
2023-03-06T09:21:59.123Z,8.45
2023-03-06T09:24:33.890Z,8.90
2023-03-06T09:27:06.995Z,8.90
2023-03-06T09:29:39.973Z,8.35
2023-03-06T09:32:14.054Z,8.05
2023-03-06T09:35:04.801Z,9.15
2023-03-06T09:37:39.619Z,8.30
2023-03-06T09:40:07.819Z,8.95
2023-03-06T09:42:42.192Z,8.93
2023-03-06T09:45:31.760Z,8.48
2023-03-06T09:48:21.488Z,8.48
2023-03-06T09:50:57.760Z,8.63
2023-03-06T09:56:47.348Z,10.27
2023-03-06T09:59:38.891Z,9.52
2023-03-06T10:02:32.194Z,8.60
2023-03-06T10:05:05.346Z,9.60
2023-03-06T10:07:53.517Z,10.13
2023-03-06T10:10:46.908Z,9.77
2023-03-06T10:13:28.003Z,9.25
2023-03-06T10:16:16.918Z,8.88
2023-03-06T10:18:47.293Z,8.70
2023-03-06T10:21:37.014Z,9.18
2023-03-06T10:24:18.592Z,8.68
2023-03-06T10:32:39.488Z,9.27
2023-03-06T10:35:23.545Z,9.48
2023-03-06T10:37:52.632Z,9.98
2023-03-06T10:40:29.403Z,9.55
2023-03-06T10:43:15.048Z,9.70
2023-03-06T10:46:23.825Z,9.25
2023-03-06T10:49:24.552Z,9.73
2023-03-06T10:52:01.673Z,8.73
2023-03-06T10:54:32.327Z,9.57
2023-03-06T10:57:19.502Z,9.63
2023-03-06T10:59:57.772Z,9.35
2023-03-06T11:02:29.048Z,8.80
2023-03-06T11:04:58.734Z,8.88
2023-03-06T11:07:35.884Z,9.13
2023-03-06T11:13:26.305Z,9.98
2023-03-06T11:16:12.855Z,9.27
2023-03-06T11:19:00.136Z,10.30
2023-03-06T11:21:35.546Z,10.00
2023-03-06T11:24:18.801Z,8.90
2023-03-06T11:26:51.428Z,9.13
2023-03-06T11:29:39.569Z,10.20
2023-03-06T11:32:28.418Z,9.35
2023-03-06T11:35:11.714Z,9.95
2023-03-06T11:38:06.222Z,10.38
2023-03-06T11:41:14.718Z,9.88
2023-03-06T11:43:51.240Z,9.63
2023-03-06T11:46:30.317Z,10.55
2023-03-06T11:49:29.391Z,12.02
2023-03-06T11:52:01.220Z,12.65
2023-03-06T12:01:06.076Z,13.43
2023-03-06T12:03:46.593Z,12.60
2023-03-06T12:06:26.408Z,12.15
2023-03-06T12:09:18.493Z,11.38
2023-03-06T12:12:14.663Z,11.50
2023-03-06T12:14:56.767Z,10.82
2023-03-06T12:17:52.064Z,11.45
2023-03-06T12:20:29.895Z,11.15
2023-03-06T12:23:15.437Z,11.85
2023-03-06T12:26:02.824Z,12.23
2023-03-06T12:28:44.418Z,12.18
2023-03-06T12:31:32.758Z,11.52
2023-03-06T12:34:23.637Z,12.88
2023-03-06T12:37:22.690Z,12.52
2023-03-06T12:40:07.711Z,11.30
2023-03-06T12:42:50.109Z,12.82
2023-03-06T12:45:32.225Z,13.80
2023-03-06T12:48:03.062Z,14.02
2023-03-06T12:50:33.023Z,13.25
2023-03-06T12:53:04.522Z,12.48
2023-03-06T12:58:44.230Z,12.68
2023-03-06T13:04:32.920Z,14.07
2023-03-06T13:07:08.450Z,13.57
2023-03-06T13:09:55.374Z,12.88
2023-03-06T13:12:26.974Z,11.80
2023-03-06T13:14:59.720Z,13.00
2023-03-06T13:17:49.162Z,12.25
2023-03-06T13:20:36.575Z,12.88
2023-03-06T13:23:33.306Z,13.02
2023-03-06T13:26:03.364Z,13.93
2023-03-06T13:31:55.479Z,12.18
2023-03-06T13:34:50.024Z,12.85
2023-03-06T13:37:27.843Z,12.15
2023-03-06T13:40:21.541Z,12.43
2023-03-06T13:42:52.284Z,12.63
2023-03-06T13:45:47.224Z,13.00
2023-03-06T13:48:43.145Z,12.18
2023-03-06T13:51:17.943Z,12.40
2023-03-06T13:54:10.058Z,12.65
2023-03-06T13:57:04.879Z,12.95
2023-03-06T13:59:40.866Z,12.50
2023-03-06T14:02:33.826Z,12.90
2023-03-06T14:05:23.661Z,11.45
2023-03-06T14:08:06.692Z,10.23
2023-03-06T14:10:35.982Z,10.90
2023-03-06T14:13:17.675Z,10.98
2023-03-06T14:21:52.345Z,11.30
2023-03-06T14:24:28.598Z,11.25
2023-03-06T14:27:06.917Z,11.13
2023-03-06T14:29:35.768Z,10.98
2023-03-06T14:32:09.123Z,11.10
2023-03-06T14:34:53.351Z,11.77
2023-03-06T14:37:54.495Z,10.05
2023-03-06T14:40:31.650Z,12.45
2023-03-06T14:43:19.951Z,11.60
2023-03-06T14:45:55.053Z,11.70
2023-03-06T14:48:50.060Z,11.88
2023-03-06T14:51:37.829Z,10.52
2023-03-06T14:54:25.740Z,11.13
2023-03-06T14:57:15.655Z,11.57
2023-03-06T15:00:03.481Z,11.43
2023-03-06T15:02:34.197Z,11.75
2023-03-06T15:05:03.217Z,12.77
2023-03-06T15:07:38.672Z,10.95
2023-03-06T15:10:38.796Z,11.23
2023-03-06T15:13:25.994Z,10.80
2023-03-06T15:19:07.415Z,11.38
2023-03-06T15:21:38.908Z,10.98
2023-03-06T15:27:11.831Z,11.77
2023-03-06T15:29:48.549Z,11.30
2023-03-06T15:32:59.792Z,9.85
2023-03-06T15:35:46.361Z,12.07
2023-03-06T15:38:32.965Z,11.25
2023-03-06T15:41:27.158Z,12.02
2023-03-06T15:44:16.691Z,11.02
2023-03-06T15:46:48.456Z,12.32
2023-03-06T15:49:19.197Z,12.10
2023-03-06T15:51:48.216Z,11.88
2023-03-06T15:54:22.954Z,12.35
2023-03-06T15:57:02.196Z,13.55
2023-03-06T15:59:40.669Z,11.43
2023-03-06T16:02:23.482Z,11.32
2023-03-06T16:05:12.376Z,12.25
2023-03-06T16:07:46.344Z,12.55
2023-03-06T16:10:40.871Z,12.25
2023-03-06T16:13:14.022Z,13.10
2023-03-06T16:15:56.335Z,12.93
2023-03-06T16:18:43.648Z,12.13
2023-03-06T16:21:18.344Z,11.90
2023-03-06T16:23:55.436Z,12.15
2023-03-06T16:26:32.192Z,13.10
2023-03-06T16:29:32.859Z,12.90
2023-03-06T16:32:19.303Z,13.05
2023-03-06T16:34:47.457Z,13.55
2023-03-06T16:37:35.823Z,13.15
2023-03-06T16:40:38.801Z,13.32
2023-03-06T16:43:06.739Z,12.50
2023-03-06T16:45:46.261Z,12.30
2023-03-06T16:48:23.639Z,13.38
2023-03-06T16:51:05.837Z,13.10
2023-03-06T16:53:33.838Z,11.73
2023-03-06T16:56:15.308Z,12.18
2023-03-06T16:59:05.847Z,13.70
2023-03-06T17:01:38.734Z,12.65
2023-03-06T17:04:25.658Z,13.07
2023-03-06T17:06:54.554Z,13.27
2023-03-06T17:09:23.435Z,12.35
2023-03-06T17:12:03.462Z,12.27
2023-03-06T17:14:53.161Z,13.02
2023-03-06T17:17:22.115Z,13.15
2023-03-06T17:19:54.278Z,12.40
2023-03-06T17:22:23.175Z,13.05
2023-03-06T17:24:53.567Z,14.40
2023-03-06T17:27:51.110Z,13.68
2023-03-06T17:30:25.205Z,14.00
2023-03-06T17:32:59.539Z,13.75
2023-03-06T17:35:39.762Z,14.45
2023-03-06T17:38:33.630Z,13.88
2023-03-06T17:41:16.980Z,16.25
2023-03-06T17:43:54.050Z,13.40
2023-03-06T17:46:27.957Z,13.18
2023-03-06T17:49:38.214Z,14.00
2023-03-06T17:52:28.675Z,13.00
2023-03-06T17:55:16.496Z,14.27
2023-03-06T17:57:44.471Z,14.40
2023-03-06T18:00:14.865Z,13.65
2023-03-06T18:02:46.305Z,14.80
2023-03-06T18:08:14.518Z,12.68
2023-03-06T18:10:44.795Z,14.20
2023-03-06T18:13:14.901Z,14.75
2023-03-06T18:15:49.746Z,14.93
2023-03-06T18:18:42.358Z,12.63
2023-03-06T18:21:33.110Z,14.65
2023-03-06T18:24:16.959Z,13.73
2023-03-06T18:26:44.850Z,14.23
2023-03-06T18:29:21.458Z,14.23
2023-03-06T18:31:51.544Z,14.32
2023-03-06T18:34:37.948Z,13.25
2023-03-06T18:37:11.742Z,13.30
2023-03-06T18:40:09.549Z,15.05
2023-03-06T18:43:06.403Z,13.35
2023-03-06T18:45:39.786Z,12.73
2023-03-06T18:48:16.884Z,12.82
2023-03-06T18:51:01.070Z,13.90
2023-03-06T18:53:41.311Z,14.35
2023-03-06T18:56:17.183Z,12.85
2023-03-06T18:58:53.222Z,13.85
2023-03-06T19:01:34.471Z,13.48
2023-03-06T19:04:22.878Z,13.20
2023-03-06T19:06:50.797Z,13.57
2023-03-06T19:09:19.839Z,13.65
2023-03-06T19:11:49.912Z,13.40
2023-03-06T19:14:34.307Z,13.45
2023-03-06T19:20:21.937Z,13.15
2023-03-06T19:22:56.071Z,14.10
2023-03-06T19:25:24.057Z,13.27
2023-03-06T19:27:55.178Z,14.25
2023-03-06T19:30:26.761Z,12.77
2023-03-06T19:33:00.509Z,13.13
2023-03-06T19:35:31.961Z,13.15
2023-03-06T19:40:51.302Z,12.55
2023-03-06T19:43:20.304Z,11.20
2023-03-06T19:45:54.100Z,12.55
2023-03-06T19:48:22.818Z,12.82
2023-03-06T19:51:11.436Z,11.90
2023-03-06T19:53:45.118Z,11.73
2023-03-06T19:56:27.328Z,11.43
2023-03-06T19:59:05.530Z,12.70
2023-03-06T20:01:47.878Z,11.77
2023-03-06T20:04:25.223Z,10.98
2023-03-06T20:06:53.647Z,12.27
2023-03-06T20:09:30.410Z,11.98
2023-03-06T20:12:01.080Z,13.85
2023-03-06T20:14:47.330Z,11.55
2023-03-06T20:17:41.641Z,11.95
2023-03-06T20:20:19.035Z,13.63
2023-03-06T20:22:52.104Z,11.00
2023-03-06T20:25:23.916Z,11.85
2023-03-06T20:27:51.749Z,12.10
2023-03-06T20:30:37.326Z,11.57
2023-03-06T20:33:17.397Z,12.45
2023-03-06T20:35:47.406Z,11.55
2023-03-06T20:38:27.738Z,11.27
2023-03-06T20:41:17.221Z,12.00
2023-03-06T20:43:47.080Z,10.95
2023-03-06T20:46:46.321Z,11.80
2023-03-06T20:49:15.440Z,11.20
2023-03-06T20:51:43.642Z,12.38
2023-03-06T20:54:18.645Z,12.68
2023-03-06T20:56:56.049Z,11.70
2023-03-06T20:59:31.976Z,11.38
2023-03-06T21:02:07.942Z,12.60
2023-03-06T21:04:42.297Z,11.20
2023-03-06T21:07:10.374Z,12.02
2023-03-06T21:09:44.449Z,13.50
2023-03-06T21:12:17.282Z,11.35
2023-03-06T21:14:47.239Z,12.50
2023-03-06T21:17:18.194Z,11.57
2023-03-06T21:20:06.677Z,12.80
2023-03-06T21:22:44.946Z,12.63
2023-03-06T21:25:14.039Z,11.55
2023-03-06T21:27:51.026Z,11.50
2023-03-06T21:30:30.555Z,13.73
2023-03-06T21:33:05.238Z,13.25
2023-03-06T21:35:41.190Z,11.60
2023-03-06T21:38:14.220Z,12.27
2023-03-06T21:41:01.817Z,11.95
2023-03-06T21:43:32.721Z,11.63
2023-03-06T21:46:01.533Z,11.80
2023-03-06T21:48:31.560Z,12.40
2023-03-06T21:51:08.733Z,12.63
2023-03-06T21:53:44.589Z,12.25
2023-03-06T21:56:22.242Z,11.60
2023-03-06T21:58:57.016Z,12.65
2023-03-06T22:01:50.097Z,12.73
2023-03-06T22:04:33.573Z,11.38
2023-03-06T22:07:01.373Z,11.82
2023-03-06T22:09:38.774Z,12.15
2023-03-06T22:12:29.473Z,11.40
2023-03-06T22:15:08.057Z,11.30
2023-03-06T22:17:46.570Z,12.68
2023-03-06T22:20:27.745Z,13.43
2023-03-06T22:22:55.635Z,13.60
2023-03-06T22:25:38.853Z,12.25
2023-03-06T22:28:17.358Z,11.85
2023-03-06T22:30:55.428Z,12.13
2023-03-06T22:37:05.372Z,10.93
2023-03-06T22:39:51.508Z,11.48
2023-03-06T22:42:32.580Z,12.40
2023-03-06T22:45:24.139Z,12.93
2023-03-06T22:48:30.530Z,11.40
2023-03-06T22:51:10.528Z,13.45
2023-03-06T22:53:50.933Z,12.75
2023-03-06T23:00:13.379Z,10.63
2023-03-06T23:02:45.088Z,10.73
2023-03-06T23:05:20.248Z,11.35
2023-03-06T23:08:12.940Z,12.10
2023-03-06T23:10:53.867Z,11.73
2023-03-06T23:13:29.702Z,11.57
2023-03-06T23:16:30.798Z,12.40
2023-03-06T23:19:01.973Z,12.18
2023-03-06T23:22:07.929Z,11.27
2023-03-06T23:25:03.337Z,11.38
2023-03-06T23:27:37.694Z,10.60
2023-03-06T23:33:23.834Z,10.38
2023-03-06T23:36:02.892Z,9.40
2023-03-06T23:38:31.257Z,8.43
2023-03-06T23:41:03.836Z,7.13
2023-03-06T23:43:36.837Z,7.90
2023-03-06T23:46:10.142Z,7.00
2023-03-06T23:48:46.377Z,7.25
2023-03-06T23:51:22.667Z,6.97
2023-03-06T23:53:59.869Z,7.05
2023-03-06T23:56:30.812Z,7.00
2023-03-06T23:59:10.754Z,6.75
